sensor_id;sensor_type;location;lat;lon;timestamp;pressure;altitude;pressure_sealevel;temperature;humidity
2875;BME280;1445;52.600;13.328;2023-10-08T00:02:15;101454.53;;;11.20;100.00
2875;BME280;1445;52.600;13.328;2023-10-08T00:04:47;101461.50;;;11.13;100.00
2875;BME280;1445;52.600;13.328;2023-10-08T00:07:13;101437.66;;;11.22;100.00
2875;BME280;1445;52.600;13.328;2023-10-08T00:09:38;101432.19;;;11.17;100.00
2875;BME280;1445;52.600;13.328;2023-10-08T00:12:04;101444.38;;;11.11;100.00
2875;BME280;1445;52.600;13.328;2023-10-08T00:14:29;101444.56;;;11.19;100.00
2875;BME280;1445;52.600;13.328;2023-10-08T00:16:55;101446.81;;;11.17;100.00
2875;BME280;1445;52.600;13.328;2023-10-08T00:19:20;101446.88;;;11.07;100.00
2875;BME280;1445;52.600;13.328;2023-10-08T00:21:46;101449.97;;;11.06;100.00
2875;BME280;1445;52.600;13.328;2023-10-08T00:24:13;101443.25;;;11.12;100.00
2875;BME280;1445;52.600;13.328;2023-10-08T00:26:39;101457.63;;;11.09;100.00
2875;BME280;1445;52.600;13.328;2023-10-08T00:29:05;101449.97;;;11.01;100.00
2875;BME280;1445;52.600;13.328;2023-10-08T00:31:32;101462.38;;;11.03;100.00
2875;BME280;1445;52.600;13.328;2023-10-08T00:34:02;101461.00;;;11.06;100.00
2875;BME280;1445;52.600;13.328;2023-10-08T00:36:31;101472.53;;;11.13;100.00
2875;BME280;1445;52.600;13.328;2023-10-08T00:38:59;101478.88;;;11.08;100.00
2875;BME280;1445;52.600;13.328;2023-10-08T00:41:25;101463.75;;;11.06;100.00
2875;BME280;1445;52.600;13.328;2023-10-08T00:43:53;101466.53;;;11.01;100.00
2875;BME280;1445;52.600;13.328;2023-10-08T00:46:21;101476.94;;;11.09;100.00
2875;BME280;1445;52.600;13.328;2023-10-08T00:48:52;101467.09;;;11.03;100.00
2875;BME280;1445;52.600;13.328;2023-10-08T00:51:24;101478.63;;;11.05;100.00
2875;BME280;1445;52.600;13.328;2023-10-08T00:54:00;101474.97;;;11.14;100.00
2875;BME280;1445;52.600;13.328;2023-10-08T00:56:31;101481.88;;;11.17;100.00
2875;BME280;1445;52.600;13.328;2023-10-08T00:59:22;101480.81;;;11.13;100.00
2875;BME280;1445;52.600;13.328;2023-10-08T01:01:49;101475.31;;;11.08;100.00
2875;BME280;1445;52.600;13.328;2023-10-08T01:04:21;101469.28;;;11.01;100.00
2875;BME280;1445;52.600;13.328;2023-10-08T01:06:56;101463.78;;;11.01;100.00
2875;BME280;1445;52.600;13.328;2023-10-08T01:09:27;101461.00;;;11.01;100.00
2875;BME280;1445;52.600;13.328;2023-10-08T01:12:09;101477.00;;;11.04;100.00
2875;BME280;1445;52.600;13.328;2023-10-08T01:14:37;101483.13;;;10.95;100.00
2875;BME280;1445;52.600;13.328;2023-10-08T01:17:02;101490.00;;;10.98;100.00
2875;BME280;1445;52.600;13.328;2023-10-08T01:19:30;101499.38;;;10.97;100.00
2875;BME280;1445;52.600;13.328;2023-10-08T01:22:03;101498.56;;;10.91;100.00
2875;BME280;1445;52.600;13.328;2023-10-08T01:24:30;101499.75;;;10.85;100.00
2875;BME280;1445;52.600;13.328;2023-10-08T01:27:01;101493.91;;;10.92;100.00
2875;BME280;1445;52.600;13.328;2023-10-08T01:29:30;101499.94;;;10.94;100.00
2875;BME280;1445;52.600;13.328;2023-10-08T01:31:56;101499.50;;;10.77;100.00
2875;BME280;1445;52.600;13.328;2023-10-08T01:34:22;101505.06;;;10.71;100.00
2875;BME280;1445;52.600;13.328;2023-10-08T01:36:53;101512.72;;;10.80;100.00
2875;BME280;1445;52.600;13.328;2023-10-08T01:39:18;101507.81;;;10.71;100.00
2875;BME280;1445;52.600;13.328;2023-10-08T01:41:44;101523.50;;;10.81;100.00
2875;BME280;1445;52.600;13.328;2023-10-08T01:44:09;101522.38;;;10.82;100.00
2875;BME280;1445;52.600;13.328;2023-10-08T01:46:35;101528.41;;;10.89;100.00
2875;BME280;1445;52.600;13.328;2023-10-08T01:49:01;101535.03;;;10.88;100.00
2875;BME280;1445;52.600;13.328;2023-10-08T01:51:33;101543.31;;;10.83;100.00
2875;BME280;1445;52.600;13.328;2023-10-08T01:54:03;101551.03;;;10.86;100.00
2875;BME280;1445;52.600;13.328;2023-10-08T01:56:36;101558.22;;;10.82;100.00
2875;BME280;1445;52.600;13.328;2023-10-08T01:59:01;101559.91;;;10.78;100.00
2875;BME280;1445;52.600;13.328;2023-10-08T02:01:26;101559.59;;;10.85;100.00
2875;BME280;1445;52.600;13.328;2023-10-08T02:03:53;101548.84;;;10.83;100.00
2875;BME280;1445;52.600;13.328;2023-10-08T02:06:18;101556.59;;;10.81;100.00
2875;BME280;1445;52.600;13.328;2023-10-08T02:08:46;101560.44;;;10.80;100.00
2875;BME280;1445;52.600;13.328;2023-10-08T02:11:12;101551.34;;;10.85;100.00
2875;BME280;1445;52.600;13.328;2023-10-08T02:13:40;101557.41;;;10.77;100.00
2875;BME280;1445;52.600;13.328;2023-10-08T02:16:07;101566.25;;;10.79;100.00
2875;BME280;1445;52.600;13.328;2023-10-08T02:18:32;101587.50;;;10.78;100.00
2875;BME280;1445;52.600;13.328;2023-10-08T02:20:58;101582.53;;;10.75;100.00
2875;BME280;1445;52.600;13.328;2023-10-08T02:23:24;101596.28;;;10.80;100.00
2875;BME280;1445;52.600;13.328;2023-10-08T02:25:49;101591.91;;;10.79;100.00
2875;BME280;1445;52.600;13.328;2023-10-08T02:28:14;101616.97;;;10.83;100.00
2875;BME280;1445;52.600;13.328;2023-10-08T02:30:41;101627.44;;;10.86;100.00
2875;BME280;1445;52.600;13.328;2023-10-08T02:33:06;101636.03;;;10.79;100.00
2875;BME280;1445;52.600;13.328;2023-10-08T02:35:50;101617.84;;;10.73;100.00
2875;BME280;1445;52.600;13.328;2023-10-08T02:38:17;101619.75;;;10.78;100.00
2875;BME280;1445;52.600;13.328;2023-10-08T02:40:43;101611.72;;;10.86;100.00
2875;BME280;1445;52.600;13.328;2023-10-08T02:43:12;101619.69;;;10.88;100.00
2875;BME280;1445;52.600;13.328;2023-10-08T02:45:39;101610.03;;;10.95;100.00
2875;BME280;1445;52.600;13.328;2023-10-08T02:48:06;101609.44;;;11.04;100.00
2875;BME280;1445;52.600;13.328;2023-10-08T02:50:37;101619.69;;;10.93;100.00
2875;BME280;1445;52.600;13.328;2023-10-08T02:53:04;101621.59;;;11.03;100.00
2875;BME280;1445;52.600;13.328;2023-10-08T02:55:36;101615.22;;;11.07;100.00
2875;BME280;1445;52.600;13.328;2023-10-08T02:58:01;101613.88;;;10.99;100.00
2875;BME280;1445;52.600;13.328;2023-10-08T03:00:30;101616.69;;;10.89;100.00
2875;BME280;1445;52.600;13.328;2023-10-08T03:02:58;101603.38;;;11.02;100.00
2875;BME280;1445;52.600;13.328;2023-10-08T03:05:26;101606.63;;;11.09;100.00
2875;BME280;1445;52.600;13.328;2023-10-08T03:07:56;101612.97;;;11.14;100.00
2875;BME280;1445;52.600;13.328;2023-10-08T03:10:23;101619.31;;;11.15;100.00
2875;BME280;1445;52.600;13.328;2023-10-08T03:12:56;101629.00;;;11.07;100.00
2875;BME280;1445;52.600;13.328;2023-10-08T03:15:22;101625.16;;;11.03;100.00
2875;BME280;1445;52.600;13.328;2023-10-08T03:17:54;101628.28;;;10.86;100.00
2875;BME280;1445;52.600;13.328;2023-10-08T03:20:22;101632.16;;;10.80;100.00
2875;BME280;1445;52.600;13.328;2023-10-08T03:23:14;101627.66;;;10.99;100.00
2875;BME280;1445;52.600;13.328;2023-10-08T03:25:57;101631.25;;;10.95;100.00
2875;BME280;1445;52.600;13.328;2023-10-08T03:28:42;101647.81;;;10.95;100.00
2875;BME280;1445;52.600;13.328;2023-10-08T03:31:07;101643.44;;;10.89;100.00
2875;BME280;1445;52.600;13.328;2023-10-08T03:33:41;101653.06;;;10.91;100.00
2875;BME280;1445;52.600;13.328;2023-10-08T03:36:08;101648.69;;;10.80;100.00
2875;BME280;1445;52.600;13.328;2023-10-08T03:38:46;101648.13;;;10.83;100.00
2875;BME280;1445;52.600;13.328;2023-10-08T03:43:52;101673.78;;;10.89;100.00
2875;BME280;1445;52.600;13.328;2023-10-08T03:46:28;101681.25;;;10.88;100.00
2875;BME280;1445;52.600;13.328;2023-10-08T03:48:53;101683.19;;;10.83;100.00
2875;BME280;1445;52.600;13.328;2023-10-08T03:51:22;101689.00;;;10.71;100.00
2875;BME280;1445;52.600;13.328;2023-10-08T03:53:47;101703.91;;;10.65;100.00
2875;BME280;1445;52.600;13.328;2023-10-08T03:56:31;101697.81;;;10.78;100.00
2875;BME280;1445;52.600;13.328;2023-10-08T03:58:57;101702.78;;;10.81;100.00
2875;BME280;1445;52.600;13.328;2023-10-08T04:01:25;101714.91;;;10.85;100.00
2875;BME280;1445;52.600;13.328;2023-10-08T04:03:55;101706.88;;;10.84;100.00
2875;BME280;1445;52.600;13.328;2023-10-08T04:06:24;101709.66;;;10.79;100.00
2875;BME280;1445;52.600;13.328;2023-10-08T04:09:01;101711.59;;;10.73;100.00
2875;BME280;1445;52.600;13.328;2023-10-08T04:11:48;101693.97;;;10.59;100.00
2875;BME280;1445;52.600;13.328;2023-10-08T04:14:14;101710.25;;;10.55;100.00
2875;BME280;1445;52.600;13.328;2023-10-08T04:16:41;101713.84;;;10.56;100.00
2875;BME280;1445;52.600;13.328;2023-10-08T04:19:07;101719.63;;;10.54;100.00
2875;BME280;1445;52.600;13.328;2023-10-08T04:21:32;101735.34;;;10.59;100.00
2875;BME280;1445;52.600;13.328;2023-10-08T04:23:58;101738.09;;;10.59;100.00
2875;BME280;1445;52.600;13.328;2023-10-08T04:26:29;101733.69;;;10.52;100.00
2875;BME280;1445;52.600;13.328;2023-10-08T04:28:55;101739.19;;;10.52;100.00
2875;BME280;1445;52.600;13.328;2023-10-08T04:31:25;101748.31;;;10.48;100.00
2875;BME280;1445;52.600;13.328;2023-10-08T04:33:53;101761.84;;;10.39;100.00
2875;BME280;1445;52.600;13.328;2023-10-08T04:36:19;101768.44;;;10.43;100.00
2875;BME280;1445;52.600;13.328;2023-10-08T04:38:45;101771.75;;;10.40;100.00
2875;BME280;1445;52.600;13.328;2023-10-08T04:41:13;101758.25;;;10.34;100.00
2875;BME280;1445;52.600;13.328;2023-10-08T04:43:42;101762.94;;;10.33;100.00
2875;BME280;1445;52.600;13.328;2023-10-08T04:46:08;101761.81;;;10.29;100.00
2875;BME280;1445;52.600;13.328;2023-10-08T04:48:56;101766.75;;;10.22;100.00
2875;BME280;1445;52.600;13.328;2023-10-08T04:51:23;101760.69;;;10.15;100.00
2875;BME280;1445;52.600;13.328;2023-10-08T04:53:48;101757.63;;;10.06;100.00
2875;BME280;1445;52.600;13.328;2023-10-08T04:56:14;101765.63;;;10.08;100.00
2875;BME280;1445;52.600;13.328;2023-10-08T04:58:45;101770.59;;;10.00;100.00
2875;BME280;1445;52.600;13.328;2023-10-08T05:01:17;101782.13;;;9.97;100.00
2875;BME280;1445;52.600;13.328;2023-10-08T05:03:43;101797.56;;;9.93;100.00
2875;BME280;1445;52.600;13.328;2023-10-08T05:06:20;101806.66;;;9.94;100.00
2875;BME280;1445;52.600;13.328;2023-10-08T05:11:38;101809.66;;;9.87;100.00
2875;BME280;1445;52.600;13.328;2023-10-08T05:14:24;101819.00;;;9.81;100.00
2875;BME280;1445;52.600;13.328;2023-10-08T05:16:59;101801.94;;;9.84;100.00
2875;BME280;1445;52.600;13.328;2023-10-08T05:19:40;101807.13;;;9.75;100.00
2875;BME280;1445;52.600;13.328;2023-10-08T05:22:09;101821.47;;;9.77;100.00
2875;BME280;1445;52.600;13.328;2023-10-08T05:24:53;101832.75;;;9.76;100.00
2875;BME280;1445;52.600;13.328;2023-10-08T05:27:38;101833.81;;;9.75;100.00
2875;BME280;1445;52.600;13.328;2023-10-08T05:30:13;101837.13;;;9.72;100.00
2875;BME280;1445;52.600;13.328;2023-10-08T05:32:50;101837.94;;;9.67;100.00
2875;BME280;1445;52.600;13.328;2023-10-08T05:35:37;101854.16;;;9.59;100.00
2875;BME280;1445;52.600;13.328;2023-10-08T05:38:05;101845.03;;;9.58;100.00
2875;BME280;1445;52.600;13.328;2023-10-08T05:40:49;101866.81;;;9.60;100.00
2875;BME280;1445;52.600;13.328;2023-10-08T05:43:21;101867.34;;;9.62;100.00
2875;BME280;1445;52.600;13.328;2023-10-08T05:46:05;101859.97;;;9.67;100.00
2875;BME280;1445;52.600;13.328;2023-10-08T05:51:31;101871.56;;;9.74;100.00
2875;BME280;1445;52.600;13.328;2023-10-08T05:59:31;101896.09;;;9.86;100.00
2875;BME280;1445;52.600;13.328;2023-10-08T06:02:04;101902.47;;;9.92;100.00
2875;BME280;1445;52.600;13.328;2023-10-08T06:04:49;101898.09;;;9.96;100.00
2875;BME280;1445;52.600;13.328;2023-10-08T06:07:33;101909.63;;;9.88;100.00
2875;BME280;1445;52.600;13.328;2023-10-08T06:10:12;101914.84;;;9.84;100.00
2875;BME280;1445;52.600;13.328;2023-10-08T06:12:58;101928.09;;;9.92;100.00
2875;BME280;1445;52.600;13.328;2023-10-08T06:15:36;101929.50;;;9.95;100.00
2875;BME280;1445;52.600;13.328;2023-10-08T06:18:20;101956.22;;;9.99;100.00
2875;BME280;1445;52.600;13.328;2023-10-08T06:20:51;101971.72;;;10.11;100.00
2875;BME280;1445;52.600;13.328;2023-10-08T06:23:19;101973.97;;;10.24;100.00
2875;BME280;1445;52.600;13.328;2023-10-08T06:25:46;101966.31;;;10.26;100.00
2875;BME280;1445;52.600;13.328;2023-10-08T06:28:15;101967.97;;;10.27;100.00
2875;BME280;1445;52.600;13.328;2023-10-08T06:30:44;101967.13;;;10.26;100.00
2875;BME280;1445;52.600;13.328;2023-10-08T06:33:10;101967.72;;;10.34;100.00
2875;BME280;1445;52.600;13.328;2023-10-08T06:35:35;101973.75;;;10.31;100.00
2875;BME280;1445;52.600;13.328;2023-10-08T06:38:01;101976.00;;;10.34;100.00
2875;BME280;1445;52.600;13.328;2023-10-08T06:40:32;101981.22;;;10.30;100.00
2875;BME280;1445;52.600;13.328;2023-10-08T06:43:04;101986.47;;;10.37;100.00
2875;BME280;1445;52.600;13.328;2023-10-08T06:45:47;101991.44;;;10.40;100.00
2875;BME280;1445;52.600;13.328;2023-10-08T06:48:13;101997.25;;;10.48;100.00
2875;BME280;1445;52.600;13.328;2023-10-08T06:50:45;102006.44;;;10.64;100.00
2875;BME280;1445;52.600;13.328;2023-10-08T06:53:11;102009.22;;;10.80;100.00
2875;BME280;1445;52.600;13.328;2023-10-08T06:55:42;102006.19;;;10.76;100.00
2875;BME280;1445;52.600;13.328;2023-10-08T06:58:07;102009.22;;;10.80;100.00
2875;BME280;1445;52.600;13.328;2023-10-08T07:00:37;102012.22;;;10.73;100.00
2875;BME280;1445;52.600;13.328;2023-10-08T07:03:06;102017.19;;;10.66;100.00
2875;BME280;1445;52.600;13.328;2023-10-08T07:05:40;102019.09;;;10.65;100.00
2875;BME280;1445;52.600;13.328;2023-10-08T07:08:08;102016.63;;;10.69;100.00
2875;BME280;1445;52.600;13.328;2023-10-08T07:10:38;102014.66;;;10.59;100.00
2875;BME280;1445;52.600;13.328;2023-10-08T07:13:03;102027.63;;;10.59;100.00
2875;BME280;1445;52.600;13.328;2023-10-08T07:15:29;102028.47;;;10.59;100.00
2875;BME280;1445;52.600;13.328;2023-10-08T07:17:55;102031.50;;;10.63;100.00
2875;BME280;1445;52.600;13.328;2023-10-08T07:20:21;102034.84;;;10.70;100.00
2875;BME280;1445;52.600;13.328;2023-10-08T07:22:49;102041.75;;;10.72;100.00
2875;BME280;1445;52.600;13.328;2023-10-08T07:25:22;102039.03;;;10.78;100.00
2875;BME280;1445;52.600;13.328;2023-10-08T07:27:47;102043.19;;;10.90;100.00
2875;BME280;1445;52.600;13.328;2023-10-08T07:30:13;102044.28;;;10.94;100.00
2875;BME280;1445;52.600;13.328;2023-10-08T07:32:43;102053.13;;;11.02;100.00
2875;BME280;1445;52.600;13.328;2023-10-08T07:35:09;102049.84;;;11.05;100.00
2875;BME280;1445;52.600;13.328;2023-10-08T07:37:54;102054.25;;;11.01;100.00
2875;BME280;1445;52.600;13.328;2023-10-08T07:40:20;102045.69;;;11.12;100.00
2875;BME280;1445;52.600;13.328;2023-10-08T07:42:46;102053.72;;;11.19;100.00
2875;BME280;1445;52.600;13.328;2023-10-08T07:45:17;102049.88;;;11.25;100.00
2875;BME280;1445;52.600;13.328;2023-10-08T07:47:42;102053.47;;;11.36;100.00
2875;BME280;1445;52.600;13.328;2023-10-08T07:50:08;102053.75;;;11.34;100.00
2875;BME280;1445;52.600;13.328;2023-10-08T07:52:36;102048.78;;;11.41;100.00
2875;BME280;1445;52.600;13.328;2023-10-08T07:55:02;102053.75;;;11.50;100.00
2875;BME280;1445;52.600;13.328;2023-10-08T07:57:29;102047.94;;;11.61;100.00
2875;BME280;1445;52.600;13.328;2023-10-08T07:59:56;102044.34;;;11.61;100.00
2875;BME280;1445;52.600;13.328;2023-10-08T08:02:26;102042.16;;;11.58;100.00
2875;BME280;1445;52.600;13.328;2023-10-08T08:04:52;102040.50;;;11.57;100.00
2875;BME280;1445;52.600;13.328;2023-10-08T08:07:21;102027.25;;;11.69;100.00
2875;BME280;1445;52.600;13.328;2023-10-08T08:09:47;102029.41;;;11.82;100.00
2875;BME280;1445;52.600;13.328;2023-10-08T08:12:24;102028.88;;;12.01;100.00
2875;BME280;1445;52.600;13.328;2023-10-08T08:14:53;102017.84;;;12.01;100.00
2875;BME280;1445;52.600;13.328;2023-10-08T08:17:19;102016.41;;;12.03;100.00
2875;BME280;1445;52.600;13.328;2023-10-08T08:19:48;102009.97;;;12.28;100.00
2875;BME280;1445;52.600;13.328;2023-10-08T08:22:14;101999.75;;;12.34;100.00
2875;BME280;1445;52.600;13.328;2023-10-08T08:24:46;101987.84;;;12.33;100.00
2875;BME280;1445;52.600;13.328;2023-10-08T08:27:12;101985.81;;;12.54;100.00
2875;BME280;1445;52.600;13.328;2023-10-08T08:29:49;101972.50;;;12.56;100.00
2875;BME280;1445;52.600;13.328;2023-10-08T08:32:14;101969.50;;;12.53;100.00
2875;BME280;1445;52.600;13.328;2023-10-08T08:34:46;101960.94;;;12.54;100.00
2875;BME280;1445;52.600;13.328;2023-10-08T08:37:15;101966.56;;;12.83;100.00
2875;BME280;1445;52.600;13.328;2023-10-08T08:39:40;101945.03;;;12.75;100.00
2875;BME280;1445;52.600;13.328;2023-10-08T08:42:06;101941.63;;;12.88;100.00
2875;BME280;1445;52.600;13.328;2023-10-08T08:44:36;101932.19;;;12.89;100.00
2875;BME280;1445;52.600;13.328;2023-10-08T08:47:04;101928.81;;;12.98;100.00
2875;BME280;1445;52.600;13.328;2023-10-08T08:49:35;101936.94;;;13.18;100.00
2875;BME280;1445;52.600;13.328;2023-10-08T08:52:04;101937.47;;;13.25;100.00
2875;BME280;1445;52.600;13.328;2023-10-08T08:54:29;101936.06;;;13.28;100.00
2875;BME280;1445;52.600;13.328;2023-10-08T08:56:57;101937.00;;;13.13;100.00
2875;BME280;1445;52.600;13.328;2023-10-08T08:59:25;101918.00;;;13.35;100.00
2875;BME280;1445;52.600;13.328;2023-10-08T09:01:51;101912.84;;;13.53;100.00
2875;BME280;1445;52.600;13.328;2023-10-08T09:04:18;101924.81;;;13.48;100.00
2875;BME280;1445;52.600;13.328;2023-10-08T09:06:53;101915.50;;;13.63;100.00
2875;BME280;1445;52.600;13.328;2023-10-08T09:09:18;101918.16;;;13.73;100.00
2875;BME280;1445;52.600;13.328;2023-10-08T09:11:47;101922.63;;;13.93;100.00
2875;BME280;1445;52.600;13.328;2023-10-08T09:14:16;101922.09;;;14.15;100.00
2875;BME280;1445;52.600;13.328;2023-10-08T09:16:42;101920.28;;;14.24;100.00
2875;BME280;1445;52.600;13.328;2023-10-08T09:19:09;101935.22;;;14.52;100.00
2875;BME280;1445;52.600;13.328;2023-10-08T09:21:40;101939.19;;;14.65;100.00
2875;BME280;1445;52.600;13.328;2023-10-08T09:24:05;101934.63;;;14.74;100.00
2875;BME280;1445;52.600;13.328;2023-10-08T09:26:35;101924.03;;;14.95;100.00
2875;BME280;1445;52.600;13.328;2023-10-08T09:29:04;101930.47;;;14.91;100.00
2875;BME280;1445;52.600;13.328;2023-10-08T09:31:29;101926.31;;;15.07;100.00
2875;BME280;1445;52.600;13.328;2023-10-08T09:34:00;101922.63;;;15.12;100.00
2875;BME280;1445;52.600;13.328;2023-10-08T09:36:27;101917.22;;;15.20;100.00
2875;BME280;1445;52.600;13.328;2023-10-08T09:39:03;101917.38;;;14.35;100.00
2875;BME280;1445;52.600;13.328;2023-10-08T09:41:32;101916.59;;;14.53;100.00
2875;BME280;1445;52.600;13.328;2023-10-08T09:44:00;101917.75;;;14.71;100.00
2875;BME280;1445;52.600;13.328;2023-10-08T09:46:29;101923.41;;;14.98;100.00
2875;BME280;1445;52.600;13.328;2023-10-08T09:48:56;101920.06;;;15.15;100.00
2875;BME280;1445;52.600;13.328;2023-10-08T09:51:25;101928.81;;;15.55;100.00
2875;BME280;1445;52.600;13.328;2023-10-08T09:53:54;101929.03;;;15.59;100.00
2875;BME280;1445;52.600;13.328;2023-10-08T09:56:24;101932.94;;;15.58;100.00
2875;BME280;1445;52.600;13.328;2023-10-08T09:58:49;101936.44;;;15.49;100.00
2875;BME280;1445;52.600;13.328;2023-10-08T10:01:16;101929.50;;;15.80;100.00
2875;BME280;1445;52.600;13.328;2023-10-08T10:03:43;101940.84;;;15.97;100.00
2875;BME280;1445;52.600;13.328;2023-10-08T10:06:12;101944.44;;;15.84;100.00
2875;BME280;1445;52.600;13.328;2023-10-08T10:08:40;101941.13;;;16.37;100.00
2875;BME280;1445;52.600;13.328;2023-10-08T10:11:06;101936.53;;;16.55;100.00
2875;BME280;1445;52.600;13.328;2023-10-08T10:13:38;101946.66;;;16.51;100.00
2875;BME280;1445;52.600;13.328;2023-10-08T10:16:04;101950.50;;;16.13;100.00
2875;BME280;1445;52.600;13.328;2023-10-08T10:18:32;101939.78;;;15.79;100.00
2875;BME280;1445;52.600;13.328;2023-10-08T10:21:24;101943.91;;;15.82;100.00
2875;BME280;1445;52.600;13.328;2023-10-08T10:23:46;101950.41;;;16.05;100.00
2875;BME280;1445;52.600;13.328;2023-10-08T10:31:34;101948.94;;;16.35;100.00
2875;BME280;1445;52.600;13.328;2023-10-08T10:34:04;101957.75;;;16.01;98.86
2875;BME280;1445;52.600;13.328;2023-10-08T10:36:29;101962.91;;;15.61;100.00
2875;BME280;1445;52.600;13.328;2023-10-08T10:38:56;101969.06;;;15.90;100.00
2875;BME280;1445;52.600;13.328;2023-10-08T10:41:22;101954.94;;;15.87;100.00
2875;BME280;1445;52.600;13.328;2023-10-08T10:43:47;101954.03;;;16.69;100.00
2875;BME280;1445;52.600;13.328;2023-10-08T10:46:18;101958.72;;;17.18;100.00
2875;BME280;1445;52.600;13.328;2023-10-08T10:48:56;101961.22;;;17.20;100.00
2875;BME280;1445;52.600;13.328;2023-10-08T10:51:42;101962.47;;;17.90;100.00
2875;BME280;1445;52.600;13.328;2023-10-08T10:54:08;101961.31;;;17.69;89.60
2875;BME280;1445;52.600;13.328;2023-10-08T10:56:35;101965.00;;;16.38;82.86
2875;BME280;1445;52.600;13.328;2023-10-08T10:59:07;101965.97;;;15.92;99.82
2875;BME280;1445;52.600;13.328;2023-10-08T11:01:51;101965.16;;;16.19;100.00
2875;BME280;1445;52.600;13.328;2023-10-08T11:04:39;101969.75;;;16.51;92.14
2875;BME280;1445;52.600;13.328;2023-10-08T11:07:14;101959.19;;;15.65;77.07
2875;BME280;1445;52.600;13.328;2023-10-08T11:09:43;101974.19;;;16.38;90.58
2875;BME280;1445;52.600;13.328;2023-10-08T11:12:10;101965.44;;;17.17;86.74
2875;BME280;1445;52.600;13.328;2023-10-08T11:14:39;101958.41;;;17.74;91.97
2875;BME280;1445;52.600;13.328;2023-10-08T11:17:25;101943.31;;;18.72;89.64
2875;BME280;1445;52.600;13.328;2023-10-08T11:19:51;101952.66;;;18.93;65.14
2875;BME280;1445;52.600;13.328;2023-10-08T11:22:17;101949.44;;;19.64;64.61
2875;BME280;1445;52.600;13.328;2023-10-08T11:24:43;101948.88;;;19.88;54.99
2875;BME280;1445;52.600;13.328;2023-10-08T11:27:12;101953.16;;;20.54;53.58
2875;BME280;1445;52.600;13.328;2023-10-08T11:29:41;101949.78;;;20.39;50.26
2875;BME280;1445;52.600;13.328;2023-10-08T11:32:07;101952.59;;;20.81;49.45
2875;BME280;1445;52.600;13.328;2023-10-08T11:34:37;101955.22;;;20.86;49.71
2875;BME280;1445;52.600;13.328;2023-10-08T11:37:04;101953.84;;;21.47;55.18
2875;BME280;1445;52.600;13.328;2023-10-08T11:39:39;101956.25;;;21.93;46.81
2875;BME280;1445;52.600;13.328;2023-10-08T11:42:10;101948.22;;;22.04;48.59
2875;BME280;1445;52.600;13.328;2023-10-08T11:45:01;101945.00;;;22.55;45.17
2875;BME280;1445;52.600;13.328;2023-10-08T11:47:46;101949.44;;;21.70;44.24
2875;BME280;1445;52.600;13.328;2023-10-08T11:50:14;101951.50;;;21.49;43.76
2875;BME280;1445;52.600;13.328;2023-10-08T11:52:44;101946.50;;;21.33;42.97
2875;BME280;1445;52.600;13.328;2023-10-08T11:55:09;101942.69;;;19.57;46.29
2875;BME280;1445;52.600;13.328;2023-10-08T11:57:35;101947.34;;;20.59;47.19
2875;BME280;1445;52.600;13.328;2023-10-08T12:00:04;101956.06;;;20.27;46.75
2875;BME280;1445;52.600;13.328;2023-10-08T12:02:44;101957.56;;;21.38;46.92
2875;BME280;1445;52.600;13.328;2023-10-08T12:05:10;101943.06;;;21.94;48.24
2875;BME280;1445;52.600;13.328;2023-10-08T12:07:44;101947.69;;;22.63;41.90
2875;BME280;1445;52.600;13.328;2023-10-08T12:10:10;101943.41;;;23.66;42.13
2875;BME280;1445;52.600;13.328;2023-10-08T12:12:36;101951.13;;;23.25;39.93
2875;BME280;1445;52.600;13.328;2023-10-08T12:15:01;101965.44;;;23.48;38.96
2875;BME280;1445;52.600;13.328;2023-10-08T12:17:28;101954.22;;;23.20;37.43
2875;BME280;1445;52.600;13.328;2023-10-08T12:20:04;101954.78;;;22.33;40.18
2875;BME280;1445;52.600;13.328;2023-10-08T12:22:37;101951.09;;;21.05;40.41
2875;BME280;1445;52.600;13.328;2023-10-08T12:25:02;101937.63;;;20.98;43.52
2875;BME280;1445;52.600;13.328;2023-10-08T12:27:32;101935.75;;;21.56;44.11
2875;BME280;1445;52.600;13.328;2023-10-08T12:29:58;101926.56;;;22.29;42.85
2875;BME280;1445;52.600;13.328;2023-10-08T12:32:24;101938.88;;;21.42;41.39
2875;BME280;1445;52.600;13.328;2023-10-08T12:34:51;101930.31;;;21.39;40.86
2875;BME280;1445;52.600;13.328;2023-10-08T12:37:18;101932.53;;;20.79;42.78
2875;BME280;1445;52.600;13.328;2023-10-08T12:39:44;101936.00;;;19.96;42.82
2875;BME280;1445;52.600;13.328;2023-10-08T12:42:25;101926.78;;;19.40;43.84
2875;BME280;1445;52.600;13.328;2023-10-08T12:44:51;101926.03;;;19.77;49.24
2875;BME280;1445;52.600;13.328;2023-10-08T12:47:17;101927.84;;;21.37;48.64
2875;BME280;1445;52.600;13.328;2023-10-08T12:49:43;101930.50;;;22.04;44.58
2875;BME280;1445;52.600;13.328;2023-10-08T12:52:11;101920.31;;;23.45;42.46
2875;BME280;1445;52.600;13.328;2023-10-08T12:54:39;101907.91;;;23.77;40.00
2875;BME280;1445;52.600;13.328;2023-10-08T12:57:10;101912.69;;;22.61;38.50
2875;BME280;1445;52.600;13.328;2023-10-08T12:59:35;101920.50;;;22.15;37.33
2875;BME280;1445;52.600;13.328;2023-10-08T13:02:01;101930.38;;;21.63;39.24
2875;BME280;1445;52.600;13.328;2023-10-08T13:04:32;101918.13;;;21.92;39.83
2875;BME280;1445;52.600;13.328;2023-10-08T13:07:00;101909.13;;;22.36;36.33
2875;BME280;1445;52.600;13.328;2023-10-08T13:09:29;101908.16;;;21.25;40.44
2875;BME280;1445;52.600;13.328;2023-10-08T13:12:01;101915.03;;;20.82;43.77
2875;BME280;1445;52.600;13.328;2023-10-08T13:14:27;101916.13;;;19.16;43.50
2875;BME280;1445;52.600;13.328;2023-10-08T13:16:52;101923.88;;;19.01;49.18
2875;BME280;1445;52.600;13.328;2023-10-08T13:19:21;101924.66;;;18.41;52.60
2875;BME280;1445;52.600;13.328;2023-10-08T13:21:48;101928.66;;;17.92;53.57
2875;BME280;1445;52.600;13.328;2023-10-08T13:24:17;101919.94;;;17.93;58.07
2875;BME280;1445;52.600;13.328;2023-10-08T13:26:43;101929.34;;;17.75;57.08